sensor_id;sensor_type;location;lat;lon;timestamp;pressure;altitude;pressure_sealevel;temperature;humidity
7662;BME280;30314;48.184;11.510;2023-01-15T00:00:35;95104.25;;;7.16;58.82
7662;BME280;30314;48.184;11.510;2023-01-15T00:03:03;95109.09;;;7.09;58.27
7662;BME280;30314;48.184;11.510;2023-01-15T00:05:31;95092.13;;;7.01;60.55
7662;BME280;30314;48.184;11.510;2023-01-15T00:08:01;95076.72;;;6.95;61.53
7662;BME280;30314;48.184;11.510;2023-01-15T00:10:29;95089.91;;;6.89;62.68
7662;BME280;30314;48.184;11.510;2023-01-15T00:12:57;95066.56;;;6.88;62.73
7662;BME280;30314;48.184;11.510;2023-01-15T00:15:25;95075.31;;;6.83;61.92
7662;BME280;30314;48.184;11.510;2023-01-15T00:17:54;95066.97;;;6.95;60.39
7662;BME280;30314;48.184;11.510;2023-01-15T00:20:21;95070.13;;;6.97;59.24
7662;BME280;30314;48.184;11.510;2023-01-15T00:22:49;95086.03;;;7.06;58.84
7662;BME280;30314;48.184;11.510;2023-01-15T00:25:17;95066.13;;;7.00;58.76
7662;BME280;30314;48.184;11.510;2023-01-15T00:28:01;95071.25;;;6.91;58.79
7662;BME280;30314;48.184;11.510;2023-01-15T00:30:29;95065.22;;;6.90;58.23
7662;BME280;30314;48.184;11.510;2023-01-15T00:32:59;95045.34;;;6.84;58.84
7662;BME280;30314;48.184;11.510;2023-01-15T00:35:27;94977.50;;;6.53;58.73
7662;BME280;30314;48.184;11.510;2023-01-15T00:37:55;95041.63;;;6.85;58.51
7662;BME280;30314;48.184;11.510;2023-01-15T00:40:22;95047.16;;;7.03;58.36
7662;BME280;30314;48.184;11.510;2023-01-15T00:42:50;95019.47;;;6.91;58.72
7662;BME280;30314;48.184;11.510;2023-01-15T00:45:20;95030.91;;;6.82;58.65
7662;BME280;30314;48.184;11.510;2023-01-15T00:47:48;95037.94;;;6.86;58.86
7662;BME280;30314;48.184;11.510;2023-01-15T00:50:18;95036.84;;;7.07;57.36
7662;BME280;30314;48.184;11.510;2023-01-15T00:52:45;95030.34;;;7.04;58.08
7662;BME280;30314;48.184;11.510;2023-01-15T00:55:13;94943.28;;;6.39;58.83
7662;BME280;30314;48.184;11.510;2023-01-15T00:57:41;95050.66;;;6.98;59.58
7662;BME280;30314;48.184;11.510;2023-01-15T01:00:10;95030.16;;;6.81;60.13
7662;BME280;30314;48.184;11.510;2023-01-15T01:02:38;94935.50;;;6.15;60.63
7662;BME280;30314;48.184;11.510;2023-01-15T01:05:07;95035.75;;;6.74;59.99
7662;BME280;30314;48.184;11.510;2023-01-15T01:07:36;94896.28;;;6.04;60.49
7662;BME280;30314;48.184;11.510;2023-01-15T01:10:05;94938.97;;;6.29;59.34
7662;BME280;30314;48.184;11.510;2023-01-15T01:12:35;95032.28;;;6.79;61.37
7662;BME280;30314;48.184;11.510;2023-01-15T01:15:03;95015.47;;;6.94;58.33
7662;BME280;30314;48.184;11.510;2023-01-15T01:17:31;95021.59;;;6.89;60.09
7662;BME280;30314;48.184;11.510;2023-01-15T01:19:59;94935.75;;;6.32;59.76
7662;BME280;30314;48.184;11.510;2023-01-15T01:22:27;95013.66;;;6.95;58.13
7662;BME280;30314;48.184;11.510;2023-01-15T01:24:56;94984.63;;;6.86;59.79
7662;BME280;30314;48.184;11.510;2023-01-15T01:27:24;94998.03;;;6.84;61.16
7662;BME280;30314;48.184;11.510;2023-01-15T01:29:51;94993.94;;;6.78;60.44
7662;BME280;30314;48.184;11.510;2023-01-15T01:32:19;94930.59;;;6.27;61.44
7662;BME280;30314;48.184;11.510;2023-01-15T01:34:47;94988.84;;;6.68;63.21
7662;BME280;30314;48.184;11.510;2023-01-15T01:37:14;94960.59;;;6.59;63.54
7662;BME280;30314;48.184;11.510;2023-01-15T01:39:43;94964.28;;;6.58;67.61
7662;BME280;30314;48.184;11.510;2023-01-15T01:42:14;94966.84;;;6.63;66.33
7662;BME280;30314;48.184;11.510;2023-01-15T01:45:17;94965.44;;;6.52;70.28
7662;BME280;30314;48.184;11.510;2023-01-15T01:47:45;94954.34;;;6.55;72.15
7662;BME280;30314;48.184;11.510;2023-01-15T01:50:13;94904.38;;;6.08;72.09
7662;BME280;30314;48.184;11.510;2023-01-15T01:52:44;94871.56;;;5.86;73.78
7662;BME280;30314;48.184;11.510;2023-01-15T01:55:15;94937.75;;;6.41;73.95
7662;BME280;30314;48.184;11.510;2023-01-15T01:57:47;94927.59;;;6.53;72.84
7662;BME280;30314;48.184;11.510;2023-01-15T02:00:17;94919.13;;;6.56;75.36
7662;BME280;30314;48.184;11.510;2023-01-15T02:02:46;94914.63;;;6.43;75.99
7662;BME280;30314;48.184;11.510;2023-01-15T02:05:28;94916.81;;;6.35;75.67
7662;BME280;30314;48.184;11.510;2023-01-15T02:07:57;94899.16;;;6.22;74.56
7662;BME280;30314;48.184;11.510;2023-01-15T02:10:27;94902.22;;;6.29;74.45
7662;BME280;30314;48.184;11.510;2023-01-15T02:13:03;94909.38;;;6.43;74.17
7662;BME280;30314;48.184;11.510;2023-01-15T02:15:34;94904.47;;;6.36;73.67
7662;BME280;30314;48.184;11.510;2023-01-15T02:18:09;94896.34;;;6.52;71.56
7662;BME280;30314;48.184;11.510;2023-01-15T02:20:41;94903.00;;;6.63;70.56
7662;BME280;30314;48.184;11.510;2023-01-15T02:29:22;94885.69;;;6.62;71.02
7662;BME280;30314;48.184;11.510;2023-01-15T02:31:54;94877.41;;;6.55;70.40
7662;BME280;30314;48.184;11.510;2023-01-15T02:34:24;94888.03;;;6.63;70.09
7662;BME280;30314;48.184;11.510;2023-01-15T02:37:00;94886.28;;;6.73;68.40
7662;BME280;30314;48.184;11.510;2023-01-15T02:39:30;94882.78;;;6.63;70.13
7662;BME280;30314;48.184;11.510;2023-01-15T02:42:01;94851.88;;;6.41;70.30
7662;BME280;30314;48.184;11.510;2023-01-15T02:48:57;94873.41;;;6.57;70.64
7662;BME280;30314;48.184;11.510;2023-01-15T02:51:36;94873.59;;;6.47;72.28
7662;BME280;30314;48.184;11.510;2023-01-15T02:54:08;94865.69;;;6.47;72.71
7662;BME280;30314;48.184;11.510;2023-01-15T02:56:39;94863.56;;;6.49;73.11
7662;BME280;30314;48.184;11.510;2023-01-15T02:59:15;94864.00;;;6.56;71.23
7662;BME280;30314;48.184;11.510;2023-01-15T03:01:48;94858.47;;;6.58;70.77
7662;BME280;30314;48.184;11.510;2023-01-15T03:04:23;94832.94;;;6.44;73.06
7662;BME280;30314;48.184;11.510;2023-01-15T03:06:55;94858.91;;;6.46;74.07
7662;BME280;30314;48.184;11.510;2023-01-15T03:09:29;94795.06;;;6.17;72.56
7662;BME280;30314;48.184;11.510;2023-01-15T03:12:03;94858.63;;;6.61;72.04
7662;BME280;30314;48.184;11.510;2023-01-15T03:14:41;94836.19;;;6.69;71.76
7662;BME280;30314;48.184;11.510;2023-01-15T03:17:17;94830.91;;;6.55;74.29
7662;BME280;30314;48.184;11.510;2023-01-15T03:19:50;94834.69;;;6.49;75.37
7662;BME280;30314;48.184;11.510;2023-01-15T03:22:26;94824.75;;;6.46;79.40
7662;BME280;30314;48.184;11.510;2023-01-15T03:24:58;94755.06;;;6.06;79.49
7662;BME280;30314;48.184;11.510;2023-01-15T03:27:31;94836.44;;;6.40;79.02
7662;BME280;30314;48.184;11.510;2023-01-15T03:30:02;94744.78;;;5.91;79.90
7662;BME280;30314;48.184;11.510;2023-01-15T03:32:30;94827.47;;;6.41;78.90
7662;BME280;30314;48.184;11.510;2023-01-15T03:34:59;94801.28;;;6.35;79.43
7662;BME280;30314;48.184;11.510;2023-01-15T03:37:30;94806.28;;;6.37;80.83
7662;BME280;30314;48.184;11.510;2023-01-15T03:39:59;94817.56;;;6.38;82.23
7662;BME280;30314;48.184;11.510;2023-01-15T03:42:44;94805.31;;;6.47;80.19
7662;BME280;30314;48.184;11.510;2023-01-15T03:45:19;94816.97;;;6.41;82.09
7662;BME280;30314;48.184;11.510;2023-01-15T03:47:57;94814.84;;;6.43;80.57
7662;BME280;30314;48.184;11.510;2023-01-15T03:50:37;94728.34;;;6.04;80.87
7662;BME280;30314;48.184;11.510;2023-01-15T03:53:10;94808.16;;;6.51;80.13
7662;BME280;30314;48.184;11.510;2023-01-15T03:55:52;94695.97;;;5.76;79.89
7662;BME280;30314;48.184;11.510;2023-01-15T03:58:25;94780.22;;;6.41;78.90
7662;BME280;30314;48.184;11.510;2023-01-15T04:00:57;94768.84;;;6.45;77.90
7662;BME280;30314;48.184;11.510;2023-01-15T04:03:27;94773.72;;;6.52;77.30
7662;BME280;30314;48.184;11.510;2023-01-15T04:05:59;94793.19;;;6.65;77.52
7662;BME280;30314;48.184;11.510;2023-01-15T04:08:32;94783.94;;;6.68;77.27
7662;BME280;30314;48.184;11.510;2023-01-15T04:11:01;94778.50;;;6.64;76.95
7662;BME280;30314;48.184;11.510;2023-01-15T04:13:31;94783.06;;;6.58;77.89
7662;BME280;30314;48.184;11.510;2023-01-15T04:16:00;94765.84;;;6.52;76.68
7662;BME280;30314;48.184;11.510;2023-01-15T04:18:29;94778.78;;;6.62;76.33
7662;BME280;30314;48.184;11.510;2023-01-15T04:20:58;94780.16;;;6.60;77.26
7662;BME280;30314;48.184;11.510;2023-01-15T04:23:27;94775.59;;;6.66;77.85
7662;BME280;30314;48.184;11.510;2023-01-15T04:25:55;94672.88;;;5.92;76.51
7662;BME280;30314;48.184;11.510;2023-01-15T04:28:23;94729.94;;;6.33;76.97
7662;BME280;30314;48.184;11.510;2023-01-15T04:30:51;94768.38;;;6.71;76.32
7662;BME280;30314;48.184;11.510;2023-01-15T04:33:18;94764.09;;;6.75;76.19
7662;BME280;30314;48.184;11.510;2023-01-15T04:35:46;94756.03;;;6.72;76.22
7662;BME280;30314;48.184;11.510;2023-01-15T04:38:15;94750.69;;;6.77;75.58
7662;BME280;30314;48.184;11.510;2023-01-15T04:40:43;94747.47;;;6.80;75.47
7662;BME280;30314;48.184;11.510;2023-01-15T04:43:28;94744.81;;;6.66;76.79
7662;BME280;30314;48.184;11.510;2023-01-15T04:46:13;94738.44;;;6.72;76.33
7662;BME280;30314;48.184;11.510;2023-01-15T04:48:41;94728.09;;;6.76;74.56
7662;BME280;30314;48.184;11.510;2023-01-15T04:51:09;94746.09;;;6.83;75.21
7662;BME280;30314;48.184;11.510;2023-01-15T04:53:38;94645.84;;;6.25;74.11
7662;BME280;30314;48.184;11.510;2023-01-15T04:56:06;94742.00;;;6.76;75.68
7662;BME280;30314;48.184;11.510;2023-01-15T04:58:33;94747.56;;;6.75;76.24
7662;BME280;30314;48.184;11.510;2023-01-15T05:01:01;94715.66;;;6.54;76.08
7662;BME280;30314;48.184;11.510;2023-01-15T05:03:30;94739.66;;;6.75;74.96
7662;BME280;30314;48.184;11.510;2023-01-15T05:06:00;94746.09;;;6.83;75.13
7662;BME280;30314;48.184;11.510;2023-01-15T05:08:28;94744.38;;;6.78;77.55
7662;BME280;30314;48.184;11.510;2023-01-15T05:11:00;94747.06;;;6.73;77.51
7662;BME280;30314;48.184;11.510;2023-01-15T05:13:29;94751.34;;;6.69;77.65
7662;BME280;30314;48.184;11.510;2023-01-15T05:16:09;94747.66;;;6.70;81.78
7662;BME280;30314;48.184;11.510;2023-01-15T05:18:38;94756.31;;;6.56;81.21
7662;BME280;30314;48.184;11.510;2023-01-15T05:21:11;94766.22;;;6.59;82.83
7662;BME280;30314;48.184;11.510;2023-01-15T05:23:39;94762.91;;;6.54;83.49
7662;BME280;30314;48.184;11.510;2023-01-15T05:29:26;94748.13;;;6.44;85.73
7662;BME280;30314;48.184;11.510;2023-01-15T05:31:54;94719.22;;;6.16;85.54
7662;BME280;30314;48.184;11.510;2023-01-15T05:34:22;94734.91;;;6.35;85.37
7662;BME280;30314;48.184;11.510;2023-01-15T05:36:50;94655.69;;;5.86;88.10
7662;BME280;30314;48.184;11.510;2023-01-15T05:39:17;94677.00;;;5.98;86.48
7662;BME280;30314;48.184;11.510;2023-01-15T05:41:45;94732.69;;;6.70;85.39
7662;BME280;30314;48.184;11.510;2023-01-15T05:44:18;94733.94;;;6.73;86.31
7662;BME280;30314;48.184;11.510;2023-01-15T05:46:48;94725.56;;;6.71;88.73
7662;BME280;30314;48.184;11.510;2023-01-15T05:49:18;94737.25;;;6.93;88.53
7662;BME280;30314;48.184;11.510;2023-01-15T05:51:47;94730.81;;;6.99;89.37
7662;BME280;30314;48.184;11.510;2023-01-15T05:54:17;94725.94;;;7.06;90.35
7662;BME280;30314;48.184;11.510;2023-01-15T05:56:46;94720.69;;;7.43;89.56
7662;BME280;30314;48.184;11.510;2023-01-15T05:59:15;94723.28;;;7.57;92.33
7662;BME280;30314;48.184;11.510;2023-01-15T06:01:44;94720.38;;;7.67;nan
7662;BME280;30314;48.184;11.510;2023-01-15T06:04:14;94652.34;;;7.52;90.84
7662;BME280;30314;48.184;11.510;2023-01-15T06:06:43;94711.59;;;8.26;90.36
7662;BME280;30314;48.184;11.510;2023-01-15T06:09:10;94723.91;;;8.40;85.92
7662;BME280;30314;48.184;11.510;2023-01-15T06:11:39;94727.31;;;8.81;86.88
7662;BME280;30314;48.184;11.510;2023-01-15T06:14:07;94732.97;;;8.56;88.56
7662;BME280;30314;48.184;11.510;2023-01-15T06:16:35;94730.41;;;8.42;88.92
7662;BME280;30314;48.184;11.510;2023-01-15T06:19:05;94735.00;;;8.59;87.50
7662;BME280;30314;48.184;11.510;2023-01-15T06:21:34;94740.22;;;8.51;90.41
7662;BME280;30314;48.184;11.510;2023-01-15T06:24:02;94735.00;;;8.59;90.39
7662;BME280;30314;48.184;11.510;2023-01-15T06:26:31;94734.72;;;8.70;90.34
7662;BME280;30314;48.184;11.510;2023-01-15T06:28:58;94732.69;;;8.58;91.71
7662;BME280;30314;48.184;11.510;2023-01-15T06:31:26;94745.09;;;8.66;90.27
7662;BME280;30314;48.184;11.510;2023-01-15T06:33:54;94731.47;;;8.73;88.76
7662;BME280;30314;48.184;11.510;2023-01-15T06:36:23;94748.53;;;8.67;88.63
7662;BME280;30314;48.184;11.510;2023-01-15T06:38:53;94711.91;;;8.65;89.20
7662;BME280;30314;48.184;11.510;2023-01-15T06:41:23;94736.75;;;8.82;87.79
7662;BME280;30314;48.184;11.510;2023-01-15T06:44:11;94737.22;;;8.75;89.08
7662;BME280;30314;48.184;11.510;2023-01-15T06:46:56;94743.63;;;8.83;89.46
7662;BME280;30314;48.184;11.510;2023-01-15T06:49:41;94739.25;;;8.78;90.96
7662;BME280;30314;48.184;11.510;2023-01-15T06:52:09;94717.84;;;8.80;92.49
7662;BME280;30314;48.184;11.510;2023-01-15T06:54:38;94730.00;;;8.90;90.30
7662;BME280;30314;48.184;11.510;2023-01-15T06:57:06;94732.00;;;8.84;92.25
7662;BME280;30314;48.184;11.510;2023-01-15T06:59:33;94740.03;;;8.87;92.63
7662;BME280;30314;48.184;11.510;2023-01-15T07:02:01;94732.19;;;8.96;90.12
7662;BME280;30314;48.184;11.510;2023-01-15T07:04:29;94723.66;;;9.08;91.33
7662;BME280;30314;48.184;11.510;2023-01-15T07:06:57;94715.59;;;9.05;91.45
7662;BME280;30314;48.184;11.510;2023-01-15T07:09:25;94719.13;;;9.00;88.19
7662;BME280;30314;48.184;11.510;2023-01-15T07:11:54;94706.59;;;9.14;91.35
7662;BME280;30314;48.184;11.510;2023-01-15T07:14:23;94712.66;;;9.15;90.49
7662;BME280;30314;48.184;11.510;2023-01-15T07:16:52;94698.25;;;9.30;91.86
7662;BME280;30314;48.184;11.510;2023-01-15T07:19:20;94702.59;;;9.61;89.51
7662;BME280;30314;48.184;11.510;2023-01-15T07:21:47;94717.00;;;9.55;89.27
7662;BME280;30314;48.184;11.510;2023-01-15T07:24:15;94702.56;;;9.79;87.29
7662;BME280;30314;48.184;11.510;2023-01-15T07:26:43;94679.59;;;9.70;87.95
7662;BME280;30314;48.184;11.510;2023-01-15T07:29:14;94710.94;;;9.81;87.87
7662;BME280;30314;48.184;11.510;2023-01-15T07:31:42;94677.91;;;9.57;87.96
7662;BME280;30314;48.184;11.510;2023-01-15T07:34:10;94728.03;;;9.66;92.18
7662;BME280;30314;48.184;11.510;2023-01-15T07:36:37;94719.66;;;9.81;87.20
7662;BME280;30314;48.184;11.510;2023-01-15T07:39:06;94716.22;;;9.72;90.21
7662;BME280;30314;48.184;11.510;2023-01-15T07:41:34;94720.28;;;9.69;89.85
7662;BME280;30314;48.184;11.510;2023-01-15T07:44:23;94718.25;;;9.57;88.78
7662;BME280;30314;48.184;11.510;2023-01-15T07:47:14;94727.13;;;9.70;88.22
7662;BME280;30314;48.184;11.510;2023-01-15T07:50:01;94735.50;;;9.72;88.54
7662;BME280;30314;48.184;11.510;2023-01-15T07:52:30;94733.78;;;9.77;88.61
7662;BME280;30314;48.184;11.510;2023-01-15T07:54:59;94717.16;;;9.67;87.89
7662;BME280;30314;48.184;11.510;2023-01-15T07:57:27;94730.84;;;9.69;88.61
7662;BME280;30314;48.184;11.510;2023-01-15T07:59:57;94726.31;;;9.70;90.15
7662;BME280;30314;48.184;11.510;2023-01-15T08:02:24;94731.75;;;9.73;88.10
7662;BME280;30314;48.184;11.510;2023-01-15T08:04:52;94732.84;;;9.81;86.95
7662;BME280;30314;48.184;11.510;2023-01-15T08:07:20;94724.16;;;9.72;87.18
7662;BME280;30314;48.184;11.510;2023-01-15T08:09:47;94724.94;;;9.72;87.06
7662;BME280;30314;48.184;11.510;2023-01-15T08:12:15;94713.13;;;9.70;86.04
7662;BME280;30314;48.184;11.510;2023-01-15T08:15:16;94704.56;;;9.82;86.07
7662;BME280;30314;48.184;11.510;2023-01-15T08:17:45;94715.13;;;9.82;86.20
7662;BME280;30314;48.184;11.510;2023-01-15T08:20:15;94710.31;;;9.84;85.36
7662;BME280;30314;48.184;11.510;2023-01-15T08:22:43;94723.06;;;9.91;85.70
7662;BME280;30314;48.184;11.510;2023-01-15T08:25:13;94703.31;;;9.88;85.40
7662;BME280;30314;48.184;11.510;2023-01-15T08:27:42;94721.16;;;10.00;84.28
7662;BME280;30314;48.184;11.510;2023-01-15T08:30:12;94728.13;;;10.05;84.95
7662;BME280;30314;48.184;11.510;2023-01-15T08:32:42;94721.94;;;10.00;84.71
7662;BME280;30314;48.184;11.510;2023-01-15T08:35:10;94709.53;;;9.92;85.28
7662;BME280;30314;48.184;11.510;2023-01-15T08:37:38;94705.63;;;10.07;84.78
7662;BME280;30314;48.184;11.510;2023-01-15T08:40:07;94691.53;;;9.85;85.51
7662;BME280;30314;48.184;11.510;2023-01-15T08:42:35;94704.97;;;10.10;84.55
7662;BME280;30314;48.184;11.510;2023-01-15T08:45:03;94705.91;;;10.06;83.68
7662;BME280;30314;48.184;11.510;2023-01-15T08:47:30;94694.53;;;10.23;82.66
7662;BME280;30314;48.184;11.510;2023-01-15T08:50:00;94685.66;;;10.27;80.80
7662;BME280;30314;48.184;11.510;2023-01-15T08:52:27;94694.06;;;10.29;82.05
7662;BME280;30314;48.184;11.510;2023-01-15T08:54:55;94659.91;;;10.24;81.93
7662;BME280;30314;48.184;11.510;2023-01-15T08:57:23;94663.91;;;10.30;81.80
7662;BME280;30314;48.184;11.510;2023-01-15T08:59:50;94679.25;;;10.37;80.21
7662;BME280;30314;48.184;11.510;2023-01-15T09:02:18;94667.63;;;10.29;80.65
7662;BME280;30314;48.184;11.510;2023-01-15T09:04:46;94670.88;;;10.44;78.47
7662;BME280;30314;48.184;11.510;2023-01-15T09:07:15;94665.53;;;10.53;78.12
7662;BME280;30314;48.184;11.510;2023-01-15T09:09:43;94667.72;;;10.51;77.43
7662;BME280;30314;48.184;11.510;2023-01-15T09:12:10;94659.84;;;10.42;80.00
7662;BME280;30314;48.184;11.510;2023-01-15T09:14:39;94656.25;;;10.47;78.74
7662;BME280;30314;48.184;11.510;2023-01-15T09:17:25;94657.97;;;10.34;79.28
7662;BME280;30314;48.184;11.510;2023-01-15T09:19:53;94654.00;;;10.57;75.24
7662;BME280;30314;48.184;11.510;2023-01-15T09:22:22;94590.97;;;10.38;74.45
7662;BME280;30314;48.184;11.510;2023-01-15T09:24:50;94632.00;;;10.75;74.55
7662;BME280;30314;48.184;11.510;2023-01-15T09:27:18;94628.19;;;10.84;73.17
7662;BME280;30314;48.184;11.510;2023-01-15T09:29:46;94625.56;;;10.84;72.28
7662;BME280;30314;48.184;11.510;2023-01-15T09:32:13;94620.97;;;10.94;71.69
7662;BME280;30314;48.184;11.510;2023-01-15T09:34:41;94610.91;;;10.87;72.32
7662;BME280;30314;48.184;11.510;2023-01-15T09:37:09;94618.78;;;10.96;69.57
7662;BME280;30314;48.184;11.510;2023-01-15T09:39:39;94621.22;;;10.80;72.11
7662;BME280;30314;48.184;11.510;2023-01-15T09:42:20;94619.38;;;10.80;71.89
7662;BME280;30314;48.184;11.510;2023-01-15T09:45:06;94619.81;;;10.82;71.20
7662;BME280;30314;48.184;11.510;2023-01-15T09:47:39;94628.06;;;10.81;71.69
7662;BME280;30314;48.184;11.510;2023-01-15T09:50:20;94615.66;;;10.51;74.51
7662;BME280;30314;48.184;11.510;2023-01-15T09:53:09;94628.34;;;11.09;67.97
7662;BME280;30314;48.184;11.510;2023-01-15T09:55:45;94624.44;;;10.85;70.93
7662;BME280;30314;48.184;11.510;2023-01-15T09:58:15;94640.59;;;10.93;70.22
7662;BME280;30314;48.184;11.510;2023-01-15T10:00:46;94685.19;;;11.03;69.19
7662;BME280;30314;48.184;11.510;2023-01-15T10:03:22;94702.97;;;10.64;78.21
7662;BME280;30314;48.184;11.510;2023-01-15T10:05:55;94725.56;;;9.69;86.98
7662;BME280;30314;48.184;11.510;2023-01-15T10:08:31;94706.91;;;9.04;89.04
7662;BME280;30314;48.184;11.510;2023-01-15T10:11:03;94786.28;;;8.94;91.72
7662;BME280;30314;48.184;11.510;2023-01-15T10:13:38;94791.72;;;8.34;94.12
7662;BME280;30314;48.184;11.510;2023-01-15T10:16:08;94786.38;;;7.94;92.93
7662;BME280;30314;48.184;11.510;2023-01-15T10:18:37;94846.19;;;7.65;96.63
7662;BME280;30314;48.184;11.510;2023-01-15T10:21:23;94862.59;;;7.34;97.03
7662;BME280;30314;48.184;11.510;2023-01-15T10:24:01;94872.72;;;6.99;99.86
7662;BME280;30314;48.184;11.510;2023-01-15T10:26:35;94881.78;;;6.93;100.00
7662;BME280;30314;48.184;11.510;2023-01-15T10:29:13;94903.53;;;6.79;100.00
7662;BME280;30314;48.184;11.510;2023-01-15T10:31:49;94894.84;;;6.65;100.00
7662;BME280;30314;48.184;11.510;2023-01-15T10:37:14;94942.56;;;6.33;100.00
7662;BME280;30314;48.184;11.510;2023-01-15T10:39:49;94942.03;;;6.17;100.00
7662;BME280;30314;48.184;11.510;2023-01-15T10:42:29;94933.38;;;6.17;100.00
7662;BME280;30314;48.184;11.510;2023-01-15T10:45:02;94964.22;;;6.06;100.00
7662;BME280;30314;48.184;11.510;2023-01-15T10:47:33;94966.34;;;6.04;100.00
7662;BME280;30314;48.184;11.510;2023-01-15T10:50:03;94948.31;;;5.97;100.00
7662;BME280;30314;48.184;11.510;2023-01-15T10:52:43;94954.75;;;5.86;100.00
7662;BME280;30314;48.184;11.510;2023-01-15T10:55:19;94955.13;;;5.74;100.00
7662;BME280;30314;48.184;11.510;2023-01-15T10:57:52;94962.78;;;5.70;100.00
7662;BME280;30314;48.184;11.510;2023-01-15T11:00:36;94972.78;;;5.68;100.00
7662;BME280;30314;48.184;11.510;2023-01-15T11:03:08;94970.81;;;5.55;100.00
7662;BME280;30314;48.184;11.510;2023-01-15T11:05:40;94983.00;;;5.70;100.00
7662;BME280;30314;48.184;11.510;2023-01-15T11:08:14;94988.00;;;5.42;100.00
7662;BME280;30314;48.184;11.510;2023-01-15T11:11:15;94976.84;;;5.31;100.00
7662;BME280;30314;48.184;11.510;2023-01-15T11:13:54;94977.34;;;5.33;100.00
7662;BME280;30314;48.184;11.510;2023-01-15T11:16:41;94968.53;;;5.24;100.00
7662;BME280;30314;48.184;11.510;2023-01-15T11:19:33;94968.06;;;5.16;100.00
7662;BME280;30314;48.184;11.510;2023-01-15T11:22:10;94946.41;;;4.76;100.00
7662;BME280;30314;48.184;11.510;2023-01-15T11:24:47;94979.72;;;5.05;100.00
7662;BME280;30314;48.184;11.510;2023-01-15T11:27:18;94980.00;;;5.28;100.00
7662;BME280;30314;48.184;11.510;2023-01-15T11:29:52;94983.59;;;5.37;100.00
7662;BME280;30314;48.184;11.510;2023-01-15T11:32:26;94960.19;;;5.16;100.00
7662;BME280;30314;48.184;11.510;2023-01-15T11:34:56;94985.06;;;5.19;100.00
7662;BME280;30314;48.184;11.510;2023-01-15T11:37:25;94981.31;;;5.01;100.00
7662;BME280;30314;48.184;11.510;2023-01-15T11:39:54;94985.91;;;5.14;100.00
7662;BME280;30314;48.184;11.510;2023-01-15T11:42:22;94978.69;;;5.01;100.00
7662;BME280;30314;48.184;11.510;2023-01-15T11:45:14;94974.69;;;4.79;100.00
7662;BME280;30314;48.184;11.510;2023-01-15T11:48:01;94988.56;;;4.79;100.00
7662;BME280;30314;48.184;11.510;2023-01-15T11:50:49;95002.19;;;4.76;100.00
7662;BME280;30314;48.184;11.510;2023-01-15T11:53:21;95024.63;;;4.53;100.00
7662;BME280;30314;48.184;11.510;2023-01-15T11:55:52;95028.59;;;4.40;100.00
7662;BME280;30314;48.184;11.510;2023-01-15T11:58:20;95034.13;;;4.39;100.00
7662;BME280;30314;48.184;11.510;2023-01-15T12:00:52;94992.22;;;3.88;100.00
7662;BME280;30314;48.184;11.510;2023-01-15T12:03:24;95050.34;;;4.35;100.00
7662;BME280;30314;48.184;11.510;2023-01-15T12:05:56;95053.25;;;4.29;100.00
7662;BME280;30314;48.184;11.510;2023-01-15T12:08:34;95062.41;;;4.31;100.00
7662;BME280;30314;48.184;11.510;2023-01-15T12:11:14;95070.78;;;4.33;100.00
7662;BME280;30314;48.184;11.510;2023-01-15T12:13:59;95061.72;;;4.10;100.00
7662;BME280;30314;48.184;11.510;2023-01-15T12:16:38;95082.09;;;4.23;100.00
7662;BME280;30314;48.184;11.510;2023-01-15T12:19:16;95084.47;;;4.15;100.00
7662;BME280;30314;48.184;11.510;2023-01-15T12:22:12;95096.47;;;4.21;100.00
7662;BME280;30314;48.184;11.510;2023-01-15T12:27:59;95110.06;;;4.28;100.00
7662;BME280;30314;48.184;11.510;2023-01-15T12:30:37;95084.72;;;4.18;100.00
7662;BME280;30314;48.184;11.510;2023-01-15T12:33:19;95097.81;;;4.13;100.00
7662;BME280;30314;48.184;11.510;2023-01-15T12:35:54;95106.69;;;4.22;100.00
7662;BME280;30314;48.184;11.510;2023-01-15T12:38:31;95095.22;;;4.08;100.00
7662;BME280;30314;48.184;11.510;2023-01-15T12:41:08;95107.41;;;4.33;100.00
7662;BME280;30314;48.184;11.510;2023-01-15T12:43:37;95113.50;;;4.13;100.00
7662;BME280;30314;48.184;11.510;2023-01-15T12:46:25;95114.78;;;4.21;100.00
7662;BME280;30314;48.184;11.510;2023-01-15T12:49:02;95124.22;;;4.17;100.00
7662;BME280;30314;48.184;11.510;2023-01-15T12:51:34;95119.25;;;4.15;100.00
7662;BME280;30314;48.184;11.510;2023-01-15T12:54:10;95124.69;;;4.34;100.00
7662;BME280;30314;48.184;11.510;2023-01-15T12:56:49;95129.19;;;4.23;100.00
7662;BME280;30314;48.184;11.510;2023-01-15T12:59:24;95104.56;;;4.25;100.00
7662;BME280;30314;48.184;11.510;2023-01-15T13:01:58;95146.13;;;4.36;100.00
7662;BME280;30314;48.184;11.510;2023-01-15T13:04:43;95140.13;;;4.31;100.00
7662;BME280;30314;48.184;11.510;2023-01-15T13:07:17;95151.16;;;4.33;100.00
7662;BME280;30314;48.184;11.510;2023-01-15T13:09:49;95157.41;;;4.37;100.00
7662;BME280;30314;48.184;11.510;2023-01-15T13:12:19;95168.91;;;4.31;100.00
7662;BME280;30314;48.184;11.510;2023-01-15T13:14:47;95160.53;;;4.39;100.00
7662;BME280;30314;48.184;11.510;2023-01-15T13:17:23;95162.09;;;4.40;100.00
7662;BME280;30314;48.184;11.510;2023-01-15T13:20:08;95156.88;;;4.35;100.00
7662;BME280;30314;48.184;11.510;2023-01-15T13:22:46;95164.72;;;4.45;100.00
7662;BME280;30314;48.184;11.510;2023-01-15T13:25:33;95171.75;;;4.55;100.00
7662;BME280;30314;48.184;11.510;2023-01-15T13:28:12;95177.03;;;4.34;100.00
7662;BME280;30314;48.184;11.510;2023-01-15T13:30:55;95165.72;;;4.44;100.00
7662;BME280;30314;48.184;11.510;2023-01-15T13:33:28;95178.66;;;4.15;100.00
7662;BME280;30314;48.184;11.510;2023-01-15T13:36:05;95201.19;;;4.05;100.00
7662;BME280;30314;48.184;11.510;2023-01-15T13:38:39;95114.69;;;3.55;100.00
7662;BME280;30314;48.184;11.510;2023-01-15T13:41:08;95208.50;;;4.08;100.00
7662;BME280;30314;48.184;11.510;2023-01-15T13:43:38;95202.50;;;3.98;100.00
7662;BME280;30314;48.184;11.510;2023-01-15T13:46:09;95215.31;;;3.94;100.00
7662;BME280;30314;48.184;11.510;2023-01-15T13:48:41;95224.44;;;3.91;100.00
7662;BME280;30314;48.184;11.510;2023-01-15T13:51:26;95218.19;;;3.92;100.00
7662;BME280;30314;48.184;11.510;2023-01-15T13:53:55;95228.13;;;3.95;100.00